x

Gravelly Shoals Light Mi (gslm4) Weather Station

4:40am - Sat 1st Aug 2015 All times are CDT. -5 hours from GMT.

  • Wind
    11mph, 15mph gusts
  • Air Temp 63°f
  • Sea Pressure 1011.9mb
  • Gravelly Shoals Light Mi
  • Gravelly Shoals Light Mi

More Historic Weather Station data

Upgrade to MSW Pro to gain access to the past 30 days of data for over 8000 Wavebouys and Weather Stations around the globe.

Join Pro

Comparision Forecast

View Surf forecast
   
Sat 08/01 4:40am 11 15 mph 1011.9mb 63f
4:30am 13 14 mph 1011.9mb 63f
4:20am 13 16 mph 1011.9mb 62f
4:12am 15 17 mph 1011.9mb 63f
4:10am 15 17 mph 1011.9mb 63f
4:00am 13 14 mph 1011.9mb 64f
3:40am 9 10 mph 1011.5mb 64f
3:30am 9 11 mph 1011.5mb 64f
3:20am 10 11 mph 1011.5mb 65f
3:11am 10 13 mph 1011.9mb 64f
3:10am 10 13 mph 1011.9mb 64f
3:00am 10 11 mph 1011.9mb 65f
2:40am 11 13 mph 1011.9mb 65f
2:30am 10 13 mph 1011.9mb 65f
2:20am 11 13 mph 1011.9mb 65f
2:11am 10 13 mph 1011.9mb 65f
2:10am 10 11 mph 1011.9mb 65f
2:00am 11
mph
1011.9mb 65f
1:40am 10 11 mph 1011.9mb 67f
1:30am 10 11 mph 1011.9mb 66f
1:20am 11 14 mph 1011.9mb 66f
1:11am 11 14 mph 1011.9mb 66f
1:10am 11 13 mph 1011.9mb 66f
1:00am 11 14 mph 1011.9mb 66f
12:40am 13 14 mph 1011.9mb 66f
12:30am 11 14 mph 1011.9mb 67f
12:20am 11 14 mph 1011.9mb 67f
12:10am 13 14 mph 1011.9mb 67f
12:00am 13 14 mph 1011.9mb 67f
Fri 07/31 11:40pm 10 11 mph 1011.9mb 67f
11:30pm 9 10 mph 1011.9mb 67f
11:20pm 9 10 mph 1011.9mb 68f
11:10pm 9
mph
1011.9mb 68f
11:00pm 9 10 mph 1011.9mb 68f
10:40pm 8 9 mph 1011.9mb 68f
10:30pm 9 10 mph 1011.9mb 68f
10:20pm 8 9 mph 1011.9mb 68f
10:10pm 7 8 mph 1011.5mb 68f
10:09pm 8 9 mph 1011.5mb 68f
10:00pm 7 9 mph 1011.9mb 68f
9:40pm 6 7 mph 1011.5mb 68f
9:30pm 5 6 mph 1011.5mb 68f
9:20pm 5 7 mph 1011.2mb 68f
9:10pm 7 9 mph 1011.2mb 68f
9:09pm 7 9 mph 1011.2mb 68f
9:00pm 8 14 mph 1011.2mb 68f
8:40pm 8 11 mph 1010.8mb 69f
8:30pm 10 11 mph 1010.8mb 69f
8:20pm 9 13 mph 1010.5mb 71f
8:10pm 13 32 mph 1010.5mb 69f
8:09pm 14
mph
1010.5mb 69f
8:00pm 30 33 mph 1010.5mb 71f
7:56pm 23 30 mph 1010.5mb 72f
7:40pm 15 18 mph 1010.5mb 73f
7:30pm 16 21 mph 1010.2mb 73f
7:20pm 20 25 mph 1010.2mb 74f
7:10pm 20 21 mph 1010.2mb 75f
7:08pm 20 25 mph 1010.2mb 75f
7:00pm 18 23 mph 1010.2mb 75f
5:40pm 17 23 mph 1009.1mb 78f
5:30pm 21 24 mph 1009.1mb 78f
5:20pm 20 22 mph 1009.1mb 78f
5:10pm 11 14 mph 1009.5mb 76f
5:07pm 9 13 mph 1009.5mb 76f
5:00pm 11 13 mph 1009.1mb 75f
4:40pm 9 11 mph 1009.1mb 74f
4:30pm 8 10 mph 1009.5mb 73f
4:20pm 10 15 mph 1009.5mb 73f
4:10pm 13 16 mph 1009.5mb 72f
4:07pm 10
mph
1009.5mb 70f
4:00pm 21 30 mph 1009.8mb 70f
3:40pm  -  3 mph 1009.1mb 74f
3:30pm  -  2 mph 1009.1mb 75f
3:20pm 1 2 mph 1009.5mb 75f
3:10pm 2 5 mph 1009.5mb 73f
3:06pm 2 26 mph 1009.5mb 73f
3:00pm 6 8 mph 1009.5mb 72f
2:40pm 9 15 mph 1009.5mb 72f
2:30pm 14 20 mph 1009.5mb 72f
2:20pm 20 24 mph 1009.5mb 73f
2:10pm 21 28 mph 1009.8mb 78f
2:00pm 17 21 mph 1009.5mb 77f
1:40pm 18 24 mph 1009.5mb 78f
1:30pm 22 23 mph 1009.5mb 78f
1:20pm 14 16 mph 1009.5mb 77f
1:10pm 15 18 mph 1009.8mb 78f
1:00pm 18 22 mph 1009.8mb 77f
12:40pm 16 20 mph 1009.8mb 76f
12:30pm 16 18 mph 1010.2mb 75f
12:20pm 13 20 mph 1010.2mb 76f
12:10pm 9 17 mph 1010.5mb 75f
12:05pm 11 18 mph 1010.5mb 75f
12:00pm 9 16 mph 1010.5mb 75f
11:40am 9 11 mph 1010.8mb 74f
11:30am 9 13 mph 1010.8mb 74f
11:20am 13 17 mph 1010.8mb 74f
11:10am 16 18 mph 1011.2mb 74f
11:05am 17 20 mph 1011.2mb 74f
11:00am 16 18 mph 1011.2mb 74f
10:40am 16 20 mph 1011.5mb 73f
10:30am 16 18 mph 1011.5mb 73f
10:20am 15 17 mph 1011.5mb 73f
10:10am 15 18 mph 1011.5mb 72f
10:04am 15 22 mph 1011.5mb 72f
10:00am 16 18 mph 1011.5mb 72f
9:40am 18 22 mph 1011.5mb 71f
9:30am 20 22 mph 1011.5mb 71f
9:20am 17 20 mph 1011.5mb 71f
9:10am 17 18 mph 1011.5mb 70f
9:04am 16 20 mph 1011.5mb 70f
9:00am 15 18 mph 1011.5mb 70f
8:40am 16 18 mph 1011.5mb 69f
8:30am 16 18 mph 1011.9mb 69f
8:20am 17 20 mph 1011.5mb 69f
8:10am 17 21 mph 1011.9mb 69f
8:04am 18 25 mph 1011.9mb 69f
8:00am 18 21 mph 1011.9mb 69f
7:40am 21 23 mph 1012.2mb 69f
7:30am 22 25 mph 1012.2mb 68f
7:20am 22 25 mph 1012.2mb 69f
7:10am 21 24 mph 1012.2mb 69f
7:03am 21 25 mph 1012.2mb 69f
7:00am 21 24 mph 1012.5mb 69f
6:40am 21 24 mph 1012.2mb 70f
6:30am 22 23 mph 1012.2mb 70f
6:20am 17 22 mph 1012.2mb 69f
6:10am 16 17 mph 1012.2mb 70f
6:03am 15 21 mph 1012.2mb 69f
6:00am 16 20 mph 1012.2mb 69f
5:40am 17 21 mph 1012.2mb 69f
5:30am 20 21 mph 1011.9mb 69f
5:20am 16 18 mph 1012.2mb 68f
5:10am 17 20 mph 1012.2mb 68f
5:02am 15 21 mph 1012.2mb 68f
5:00am 14 16 mph 1012.2mb 68f
4:50am 15 18 mph 1012.2mb 68f
4:40am 17 21 mph 1012.2mb 68f
4:30am 18 21 mph 1012.2mb 69f
4:20am 16 17 mph 1012.2mb 69f
4:10am 17 20 mph 1012.2mb 69f
4:02am 17 21 mph 1012.2mb 69f
4:00am 17 20 mph 1012.2mb 69f
3:50am 15 18 mph 1012.2mb 70f
3:40am 16 18 mph 1012.2mb 70f
3:30am 18 20 mph 1012.5mb 69f
3:20am 17 20 mph 1012.5mb 69f
3:10am 20 21 mph 1012.5mb 69f
3:02am 17 22 mph 1012.5mb 70f
3:00am 18 22 mph 1012.5mb 70f
2:50am 18 21 mph 1012.5mb 70f
2:40am 18 21 mph 1012.5mb 71f
2:30am 18 21 mph 1012.5mb 71f
2:20am 17 18 mph 1012.5mb 71f
2:10am 14 16 mph 1012.5mb 71f
2:01am 14 17 mph 1012.5mb 71f
2:00am 14 16 mph 1012.5mb 71f
1:50am 15 17 mph 1012.5mb 71f
1:40am 14 17 mph 1012.5mb 72f
1:30am 13 16 mph 1012.5mb 72f
1:20am 14 16 mph 1012.5mb 73f
1:10am 9 10 mph 1012.5mb 72f
1:01am 9 13 mph 1012.5mb 72f
1:00am 9 11 mph 1012.5mb 72f
12:50am 10 11 mph 1012.5mb 73f
12:40am 8 10 mph 1012.9mb 73f
12:30am 10 11 mph 1012.9mb 73f
12:20am 7 13 mph 1012.9mb 73f
12:10am 8 11 mph 1012.9mb 73f
12:00am 7 9 mph 1012.9mb 74f
Thu 07/30 11:50pm 2 3 mph 1012.9mb 74f
11:40pm 2 5 mph 1012.9mb 74f
11:30pm  -  5 mph 1012.9mb 74f
11:20pm 3 8 mph 1013.2mb 74f
11:10pm 5 8 mph 1013.2mb 74f
11:00pm 8 9 mph 1012.9mb 74f
10:50pm 8 10 mph 1012.9mb 74f
10:40pm 9 10 mph 1013.2mb 74f
10:30pm 9 10 mph 1012.9mb 74f
10:20pm 9 10 mph 1013.2mb 75f
10:10pm 8 9 mph 1012.9mb 74f
10:00pm 8 14 mph 1012.9mb 75f
9:50pm 9 10 mph 1012.9mb 76f
9:40pm 9 10 mph 1012.9mb 76f
9:30pm 9 10 mph 1012.9mb 76f
9:20pm 9
mph
1012.9mb 76f
9:10pm 9
mph
1012.9mb 77f
9:00pm 9 10 mph 1012.5mb 77f
8:50pm 10 13 mph 1012.5mb 77f
8:40pm 13 14 mph 1012.5mb 78f
8:30pm 13 14 mph 1012.5mb 78f
8:20pm 13 14 mph 1012.2mb 78f
8:10pm 13 14 mph 1012.2mb 78f
8:03pm 13 21 mph 1012.2mb 78f
8:00pm 14 15 mph 1012.2mb 78f
7:50pm 15
mph
1012.2mb 78f
7:40pm 15 16 mph 1012.2mb 78f
7:30pm 16 18 mph 1012.2mb 79f
7:20pm 17 21 mph 1012.2mb 79f
7:10pm 20 24 mph 1011.9mb 80f
7:03pm 22
mph
1011.9mb 79f
7:00pm 23 25 mph 1011.9mb 79f
6:50pm 21 26 mph 1011.9mb 80f
6:30pm 24 29 mph 1011.9mb 80f
6:20pm 23 29 mph 1011.9mb 80f
6:14pm 25 29 mph 1011.5mb 80f
6:10pm 25 29 mph 1011.9mb 80f
6:00pm 25 29 mph 1011.9mb 80f
5:50pm 26 30 mph 1011.9mb 80f
5:40pm 29 32 mph 1011.5mb 81f
5:30pm 25 30 mph 1011.9mb 80f
5:20pm 24 28 mph 1011.5mb 80f
5:10pm 23 29 mph 1011.5mb 80f
5:02pm 26
mph
1011.5mb 81f
5:00pm 26 33 mph 1011.5mb 81f
4:56pm 24 29 mph 1011.5mb 80f
4:50pm 23 29 mph 1011.5mb 81f
4:40pm 18 24 mph 1011.5mb 80f
4:30pm 22 28 mph 1011.5mb 80f
4:20pm 21 31 mph 1011.5mb 81f
4:10pm 26 31 mph 1011.2mb 81f
4:01pm 26
mph
1011.5mb 82f
4:00pm 26 29 mph 1011.5mb 82f
3:50pm 25 28 mph 1011.5mb 81f
3:40pm 22 28 mph 1011.5mb 81f
3:30pm 24 29 mph 1011.5mb 80f
3:20pm 25 31 mph 1011.5mb 81f
3:10pm 24 28 mph 1011.5mb 80f
3:01pm 25
mph
1011.5mb 81f
3:00pm 25 31 mph 1011.5mb 81f
2:50pm 22 26 mph 1011.5mb 80f
2:40pm 23 26 mph 1011.5mb 80f
2:30pm 22 28 mph 1011.5mb 80f
2:20pm 26 30 mph 1011.2mb 80f
2:19pm 26 30 mph 1011.2mb 79f
2:10pm 22 26 mph 1011.5mb 80f
2:00pm 21 28 mph 1011.5mb 79f
1:50pm 17 28 mph 1011.5mb 80f
1:40pm 24 28 mph 1011.5mb 79f
1:30pm 18 25 mph 1011.9mb 79f
1:20pm 21 24 mph 1011.9mb 79f
1:10pm 21 26 mph 1011.9mb 79f
1:00pm 21
mph
1011.9mb 78f
12:50pm 20 25 mph 1011.9mb 78f
12:40pm 24 28 mph 1011.9mb 78f
12:30pm 26 30 mph 1011.9mb 78f
12:20pm 21 25 mph 1011.9mb 78f
12:10pm 18 25 mph 1011.9mb 77f
12:00pm 21 24 mph 1012.2mb 77f
11:50am 18 23 mph 1012.2mb 77f
11:40am 18 23 mph 1012.2mb 76f
11:30am 18 23 mph 1012.2mb 76f
11:20am 18 24 mph 1012.2mb 76f
11:10am 20 23 mph 1012.2mb 75f
11:00am 20 21 mph 1012.5mb 74f
10:50am 17 22 mph 1012.5mb 74f
10:40am 18 22 mph 1012.5mb 74f
10:30am 16 21 mph 1012.5mb 73f
10:20am 18 22 mph 1012.5mb 73f
10:10am 18 21 mph 1012.5mb 73f
10:00am 18 21 mph 1012.5mb 73f
9:50am 17 20 mph 1012.5mb 73f
9:40am 16 20 mph 1012.5mb 73f
9:30am 16 22 mph 1012.5mb 73f
9:20am 17 21 mph 1012.5mb 72f
9:10am 17 22 mph 1012.5mb 72f
9:00am 18 29 mph 1012.9mb 72f
8:50am 18 22 mph 1012.9mb 71f
8:40am 20 22 mph 1012.9mb 71f
8:30am 20 24 mph 1012.9mb 71f
8:20am 20 23 mph 1012.9mb 71f
8:10am 21 24 mph 1012.5mb 70f
8:00am 21 25 mph 1012.5mb 70f
7:50am 22 26 mph 1012.5mb 70f
7:40am 22 26 mph 1012.5mb 70f
7:30am 23 25 mph 1012.5mb 70f
7:20am 23 26 mph 1012.5mb 69f
7:10am 22 29 mph 1012.5mb 69f
7:00am 23 26 mph 1012.2mb 69f
6:50am 24 28 mph 1012.2mb 69f
6:40am 22 26 mph 1012.2mb 69f
6:30am 22 26 mph 1012.2mb 69f
6:20am 23 26 mph 1011.9mb 69f
6:10am 23 25 mph 1011.9mb 69f
6:00am 23 25 mph 1011.9mb 69f
5:50am 22 25 mph 1011.9mb 69f
5:40am 21 24 mph 1011.9mb 69f
5:30am 21 23 mph 1011.5mb 69f
5:20am 20 24 mph 1011.5mb 69f
5:10am 22 24 mph 1011.5mb 69f
5:00am 22 26 mph 1011.5mb 69f
4:50am 23 26 mph 1011.5mb 69f
4:40am 22 25 mph 1011.5mb 69f
4:30am 24 26 mph 1011.2mb 70f
4:20am 23 26 mph 1011.5mb 70f
4:10am 21 23 mph 1011.5mb 71f
4:00am 22 24 mph 1011.2mb 71f
3:50am 21 24 mph 1011.2mb 71f
3:40am 20 22 mph 1011.2mb 71f
3:30am 18 22 mph 1011.5mb 70f
3:20am 20 22 mph 1011.2mb 70f
3:10am 18 22 mph 1011.5mb 71f
3:00am 20 22 mph 1011.5mb 71f
2:50am 20 23 mph 1011.5mb 71f
2:40am 21 22 mph 1011.5mb 71f
2:30am 16 20 mph 1011.5mb 71f
2:20am 18 22 mph 1011.5mb 71f
2:15am 20 23 mph 1011.5mb 71f
2:10am 18 21 mph 1011.5mb 71f
2:00am 18 22 mph 1011.5mb 71f
1:50am 18 23 mph 1011.5mb 71f
1:40am 20 22 mph 1011.5mb 71f
1:30am 20 22 mph 1011.5mb 71f
1:20am 20 22 mph 1011.5mb 72f
1:14am 18 25 mph 1011.5mb 72f
1:10am 21 23 mph 1011.5mb 72f
1:00am 21 24 mph 1011.5mb 72f
12:50am 21 24 mph 1011.5mb 73f
12:40am 20 24 mph 1011.5mb 73f
12:30am 21 23 mph 1011.5mb 73f
12:20am 23 26 mph 1011.5mb 73f
12:14am 23 29 mph 1011.5mb 74f
12:10am 24 28 mph 1011.5mb 74f
12:00am 22 29 mph 1011.5mb 75f
Wed 07/29 11:50pm 23 28 mph 1011.5mb 75f
11:40pm 21 26 mph 1011.5mb 75f
11:30pm 24 28 mph 1011.5mb 76f
11:20pm 22 29 mph 1011.5mb 76f
11:13pm 22 26 mph 1011.5mb 76f
11:10pm 21 25 mph 1011.5mb 76f
11:00pm 22 24 mph 1011.5mb 76f
10:50pm 18 23 mph 1011.5mb 76f
10:40pm 21 24 mph 1011.5mb 77f
10:30pm 20 23 mph 1011.5mb 77f
10:20pm 20 21 mph 1011.5mb 77f
10:13pm 15 24 mph 1011.5mb 76f
10:10pm 15 21 mph 1011.9mb 76f
10:00pm 17 21 mph 1011.9mb 77f
9:50pm 17 23 mph 1011.5mb 77f
9:40pm 21 24 mph 1011.5mb 77f
9:30pm 18 20 mph 1011.5mb 77f
9:20pm 18 20 mph 1011.5mb 77f
9:13pm 17 23 mph 1011.5mb 77f
9:10pm 16 21 mph 1011.5mb 77f
9:00pm 18 22 mph 1011.5mb 78f
8:50pm 21 23 mph 1011.5mb 78f
8:40pm 22 23 mph 1011.2mb 78f
8:30pm 22 24 mph 1010.8mb 78f
8:20pm 21 24 mph 1010.8mb 79f
8:12pm 22
mph
1010.8mb 79f
8:10pm 21 24 mph 1010.5mb 79f
8:00pm 23 26 mph 1010.5mb 80f
7:50pm 24 28 mph 1010.5mb 81f
7:40pm 25 31 mph 1010.2mb 81f
7:30pm 23 30 mph 1010.2mb 82f
7:20pm 21 23 mph 1010.2mb 82f
7:12pm 23 25 mph 1010.2mb 82f
7:10pm 23 25 mph 1010.2mb 82f
7:00pm 21 23 mph 1010.2mb 82f
6:50pm 16 20 mph 1010.2mb 81f
6:30pm 20 24 mph 1010.2mb 82f
6:20pm 22 25 mph 1009.8mb 83f
6:11pm 21 24 mph 1009.8mb 83f
6:10pm 21 24 mph 1009.8mb 83f
6:00pm 20 22 mph 1009.8mb 83f
5:50pm 17 20 mph 1010.2mb 81f
5:40pm 17 22 mph 1010.2mb 81f
5:30pm 17 24 mph 1010.2mb 81f
5:20pm 17 21 mph 1010.2mb 80f
5:11pm 6 16 mph 1010.2mb 80f
5:10pm 6 14 mph 1010.2mb 80f
5:00pm 7 11 mph 1010.2mb 80f
4:50pm 8 16 mph 1010.2mb 79f
4:40pm 11 16 mph 1011.2mb 79f
4:30pm 9 15 mph 1010.2mb 78f
4:20pm 7 17 mph 1010.2mb 78f
4:10pm 14 18 mph 1010.2mb 78f
4:00pm 13 16 mph 1010.5mb 78f
3:50pm 10 14 mph 1010.5mb 78f
3:40pm 11 15 mph 1010.5mb 78f
3:30pm 10 13 mph 1010.5mb 78f
3:20pm 7 13 mph 1010.5mb 78f
3:10pm 11 15 mph 1010.5mb 77f
3:00pm 8 11 mph 1010.8mb 76f
2:50pm 1 7 mph 1010.8mb 76f
2:40pm 3 10 mph 1010.8mb 75f
2:30pm 8 11 mph 1011.2mb 74f
2:20pm 5 15 mph 1011.5mb 74f
2:10pm 9 29 mph 1011.5mb 74f
2:00pm 8 28 mph 1011.5mb 79f
1:50pm 5 6 mph 1010.8mb 80f
1:40pm 2 5 mph 1010.8mb 80f
1:30pm 3 5 mph 1010.8mb 80f
1:20pm 5 7 mph 1011.2mb 80f
1:10pm 3 8 mph 1011.2mb 80f
1:09pm 2 17 mph 1011.2mb 80f
1:00pm 5 13 mph 1011.5mb 80f
12:50pm 10 15 mph 1011.5mb 79f
12:40pm 8 14 mph 1011.5mb 79f
12:30pm 14 17 mph 1011.5mb 79f
12:20pm 9 14 mph 1011.5mb 79f
12:10pm 10 14 mph 1011.9mb 79f
12:09pm 8 15 mph 1011.9mb 79f
12:00pm 7 10 mph 1011.9mb 79f
11:50am 6 8 mph 1012.2mb 78f
10:50am 5 9 mph 1012.5mb 78f
10:40am 5 7 mph 1012.5mb 78f
10:30am 3 8 mph 1012.9mb 78f
10:20am 3 6 mph 1012.9mb 77f
10:10am 2 11 mph 1013.2mb 76f
10:08am 3 14 mph 1013.2mb 76f
10:00am 3 6 mph 1013.2mb 76f
9:50am 2 8 mph 1013.2mb 76f
9:40am 6 8 mph 1013.2mb 76f
9:30am 7 10 mph 1013.2mb 77f
9:20am 8 14 mph 1013.2mb 77f
9:10am 6 9 mph 1013.5mb 76f
9:08am 5 11 mph 1013.5mb 76f
9:00am 3 6 mph 1013.5mb 76f
8:50am 3 8 mph 1013.5mb 77f
8:40am 6 7 mph 1013.5mb 77f
8:30am 5 8 mph 1013.9mb 77f
8:20am 6 11 mph 1013.5mb 77f
8:10am 5 8 mph 1013.9mb 77f
8:07am 3 11 mph 1013.9mb 76f
8:00am 5 7 mph 1013.9mb 77f
7:50am 3 7 mph 1013.9mb 77f
7:40am 3 5 mph 1013.9mb 76f
7:30am 1 8 mph 1014.2mb 76f
7:20am 2 11 mph 1014.2mb 76f
7:10am 5 9 mph 1014.2mb 76f
7:07am 3 9 mph 1013.9mb 76f
7:00am 3 6 mph 1014.2mb 76f
6:50am 2 7 mph 1014.2mb 76f
6:40am 6 9 mph 1014.2mb 76f
6:30am 2 8 mph 1013.9mb 76f
6:20am 3 8 mph 1014.2mb 76f
6:10am 3 7 mph 1014.2mb 76f
6:06am 3 8 mph 1014.2mb 76f
6:00am 3 7 mph 1014.2mb 76f
5:50am 3 8 mph 1014.2mb 76f
5:40am 5 8 mph 1014.2mb 76f
5:30am 6 8 mph 1014.2mb 76f
5:20am 5 8 mph 1014.2mb 76f
5:10am 3 7 mph 1014.2mb 76f
5:06am 3 13 mph 1014.2mb 76f
5:00am 3 8 mph 1014.2mb 76f
4:50am 6 9 mph 1013.9mb 76f
4:40am 7 10 mph 1013.9mb 76f
4:30am 6 10 mph 1014.2mb 76f
4:20am 8 13 mph 1013.9mb 76f
4:10am 11 13 mph 1013.5mb 76f
4:06am 9 16 mph 1013.5mb 76f
4:00am 9 11 mph 1013.5mb 76f
3:50am 10 14 mph 1013.5mb 76f
3:40am 13 14 mph 1013.5mb 76f
3:30am 11 16 mph 1013.5mb 76f
3:20am 14 15 mph 1013.5mb 76f
3:10am 8 10 mph 1013.9mb 77f
3:05am 6 16 mph 1013.9mb 77f
3:00am 8 14 mph 1014.2mb 77f
2:50am 11 16 mph 1014.2mb 77f
2:40am 6 9 mph 1014.2mb 77f
2:30am 3 6 mph 1014.6mb 78f
2:20am 3 6 mph 1014.9mb 78f
2:10am 5 9 mph 1014.9mb 77f
2:05am 5 16 mph 1014.9mb 77f
2:00am 7 13 mph 1014.9mb 77f
1:50am 8 14 mph 1014.9mb 77f
1:40am 7 10 mph 1015.2mb 78f
1:30am 7 14 mph 1015.2mb 78f
1:20am 11 16 mph 1015.6mb 78f
1:10am 14 16 mph 1015.6mb 78f
1:04am 14 18 mph 1015.6mb 78f
1:00am 15 17 mph 1015.6mb 78f
12:50am 15 17 mph 1015.6mb 78f
12:40am 16 17 mph 1015.6mb 78f
12:30am 17 18 mph 1015.2mb 78f
12:20am 16 17 mph 1015.2mb 78f
12:10am 16 17 mph 1015.6mb 78f
12:04am 16 21 mph 1015.6mb 78f
12:00am 16 18 mph 1015.6mb 78f
Tue 07/28 11:50pm 17 18 mph 1015.6mb 78f
11:40pm 18 21 mph 1015.9mb 78f
11:30pm 18 21 mph 1015.6mb 79f
11:20pm 17 21 mph 1015.9mb 79f
11:10pm 20
mph
1015.9mb 79f
11:04pm 17 20 mph 1015.9mb 79f
11:00pm 17 18 mph 1015.9mb 79f
10:50pm 17 18 mph 1015.9mb 79f
10:40pm 15 17 mph 1015.9mb 80f
10:30pm 17
mph
1015.9mb 80f
10:20pm 16 17 mph 1015.9mb 80f
10:10pm 11
mph
1015.9mb 80f
10:03pm 9 11 mph 1015.9mb 80f
10:00pm 9 11 mph 1015.9mb 80f
9:50pm 10 11 mph 1015.9mb 80f
9:40pm 10 11 mph 1015.9mb 80f
9:30pm 9 10 mph 1015.6mb 81f
9:20pm 10
mph
1015.6mb 81f
9:10pm 9 11 mph 1015.2mb 81f
9:03pm 10 15 mph 1015.2mb 81f
9:00pm 11 14 mph 1015.2mb 81f
8:50pm 11 14 mph 1015.2mb 81f
8:40pm 11 13 mph 1015.2mb 81f
8:30pm 11 14 mph 1015.2mb 81f
8:20pm 13 15 mph 1014.9mb 81f
8:10pm 13 15 mph 1014.9mb 81f
8:02pm 15
mph
1014.9mb 82f
8:00pm 15
mph
1014.9mb 82f
7:50pm 14 15 mph 1015.2mb 81f
7:40pm 15
mph
1014.9mb 81f
7:30pm 15
mph
1014.9mb 82f
7:20pm 14 15 mph 1014.9mb 82f
7:10pm 13 15 mph 1014.9mb 82f
7:02pm 15
mph
1014.6mb 82f
7:00pm 14 15 mph 1014.6mb 82f
6:50pm 14 15 mph 1014.9mb 82f
6:30pm 11 14 mph 1014.9mb 82f
6:20pm 11 13 mph 1014.9mb 81f
6:10pm 9 10 mph 1014.9mb 81f
6:02pm 10
mph
1014.9mb 81f
6:00pm 10
mph
1014.9mb 81f
5:50pm 9 10 mph 1014.9mb 82f
5:40pm 8 9 mph 1014.9mb 82f
5:30pm 8
mph
1014.9mb 83f
5:20pm 8
mph
1015.2mb 83f
5:10pm 8
mph
1015.2mb 83f
5:01pm 7 8 mph 1015.2mb 83f
5:00pm 7
mph
1015.2mb 83f
4:50pm 7
mph
1015.2mb 83f
4:40pm 7 8 mph 1015.2mb 83f
4:30pm 7
mph
1015.6mb 83f
4:20pm 6 7 mph 1015.9mb 83f
4:10pm 6
mph
1015.9mb 83f
4:01pm 5
mph
1015.9mb 83f
4:00pm 5
mph
1015.9mb 83f
3:50pm 5
mph
1015.9mb 83f
3:40pm 5
mph
1016.3mb 82f
3:30pm 5
mph
1016.3mb 82f
3:20pm 5
mph
1016.3mb 82f
3:10pm 5
mph
1016.6mb 82f
3:00pm 5 6 mph 1016.6mb 82f
2:50pm 5
mph
1016.6mb 81f
2:40pm 5
mph
1016.6mb 81f
2:30pm 5 6 mph 1016.3mb 81f
2:20pm 5
mph
1016.6mb 81f
2:10pm 3 5 mph 1016.6mb 82f
2:00pm 5 6 mph 1016.6mb 83f
1:50pm 6
mph
1016.6mb 82f
1:40pm 5
mph
1016.9mb 81f
1:30pm 5
mph
1016.9mb 80f
1:20pm 5
mph
1016.9mb 80f
1:10pm 3 5 mph 1017.3mb 80f
1:00pm 3 5 mph 1017.3mb 81f
12:40pm 5
mph
1017.3mb 79f
12:30pm 3 5 mph 1017.3mb 79f
12:20pm 3
mph
1017.3mb 81f
12:10pm 3
mph
1017.6mb 81f
12:00pm 2 3 mph 1017.6mb 80f
11:40am 2 3 mph 1017.6mb 83f
11:30am  -  1 mph 1017.9mb 82f
11:20am  -  1 mph 1017.6mb 81f
11:10am  -  3 mph 1017.6mb 82f
11:00am  -  2 mph 1017.6mb 80f
10:50am  -  3 mph 1017.6mb 78f
10:42am 2 3 mph 1017.6mb 76f
10:40am 2 3 mph 1017.3mb 76f
10:30am 3
mph
1017.3mb 75f